createdAt,value
2022-11-22T00:03:02.435Z,138.73
2022-11-22T00:06:04.910Z,117.82
2022-11-22T00:09:07.423Z,93.13
2022-11-22T00:12:09.903Z,86.37
2022-11-22T00:15:12.820Z,80.45
2022-11-22T00:18:15.250Z,82.63
2022-11-22T00:21:17.693Z,83.22
2022-11-22T00:24:20.141Z,71.78
2022-11-22T00:27:22.602Z,80.10
2022-11-22T00:30:25.015Z,82.88
2022-11-22T00:33:27.432Z,78.82
2022-11-22T00:36:29.830Z,71.60
2022-11-22T00:39:32.579Z,63.85
2022-11-22T00:42:35.186Z,83.87
2022-11-22T00:45:37.638Z,86.88
2022-11-22T00:48:40.170Z,78.82
2022-11-22T00:51:42.588Z,102.75
2022-11-22T00:54:50.048Z,101.97
2022-11-22T00:57:55.599Z,80.27
2022-11-22T01:00:58.812Z,103.95
2022-11-22T01:04:01.409Z,100.57
2022-11-22T01:07:03.975Z,99.68
2022-11-22T01:10:06.919Z,77.90
2022-11-22T01:13:10.204Z,87.53
2022-11-22T01:16:14.000Z,84.20
2022-11-22T01:19:16.611Z,105.05
2022-11-22T01:22:19.097Z,91.07
2022-11-22T01:25:21.628Z,90.30
2022-11-22T01:28:24.184Z,49.53
2022-11-22T01:31:26.656Z,58.10
2022-11-22T01:34:29.070Z,85.18
2022-11-22T01:37:31.500Z,86.85
2022-11-22T01:40:33.919Z,71.35
2022-11-22T01:43:36.346Z,61.50
2022-11-22T01:46:39.700Z,54.85
2022-11-22T01:49:51.893Z,51.95
2022-11-22T01:52:55.627Z,45.03
2022-11-22T01:56:00.212Z,52.55
2022-11-22T01:59:07.508Z,49.37
2022-11-22T02:02:09.963Z,60.03
2022-11-22T02:05:15.620Z,83.35
2022-11-22T02:08:24.353Z,67.57
2022-11-22T02:11:32.635Z,57.72
2022-11-22T02:14:37.020Z,63.23
2022-11-22T02:17:39.444Z,68.30
2022-11-22T02:20:41.936Z,54.03
2022-11-22T02:23:51.810Z,70.28
2022-11-22T02:26:54.307Z,68.35
2022-11-22T02:29:57.548Z,66.40
2022-11-22T02:33:00.042Z,74.93
2022-11-22T02:36:02.675Z,64.18
2022-11-22T02:39:05.861Z,55.03
2022-11-22T02:42:08.332Z,69.68
2022-11-22T02:45:11.133Z,56.13
2022-11-22T02:48:16.481Z,52.40
2022-11-22T02:51:20.222Z,60.80
2022-11-22T02:54:22.914Z,71.25
2022-11-22T02:57:25.364Z,58.88
2022-11-22T03:00:27.875Z,74.13
2022-11-22T03:03:31.714Z,72.57
2022-11-22T03:06:34.201Z,52.63
2022-11-22T03:09:36.765Z,71.50
2022-11-22T03:12:39.200Z,67.93
2022-11-22T03:15:41.635Z,54.03
2022-11-22T03:18:44.152Z,69.60
2022-11-22T03:21:46.635Z,66.30
2022-11-22T03:24:49.051Z,61.25
2022-11-22T03:27:51.416Z,68.47
2022-11-22T03:30:53.782Z,54.37
2022-11-22T03:33:56.716Z,56.33
2022-11-22T03:36:59.319Z,56.67
2022-11-22T03:40:01.860Z,65.82
2022-11-22T03:43:04.465Z,60.80
2022-11-22T03:46:06.899Z,50.17
2022-11-22T03:49:10.857Z,51.60
2022-11-22T03:52:13.359Z,48.40
2022-11-22T03:55:16.081Z,50.58
2022-11-22T03:58:18.593Z,43.55
2022-11-22T04:01:21.117Z,38.00
2022-11-22T04:04:23.634Z,52.90
2022-11-22T04:07:26.062Z,45.53
2022-11-22T04:10:28.512Z,47.10
2022-11-22T04:13:49.324Z,51.67
2022-11-22T04:16:51.769Z,53.53
2022-11-22T04:20:13.134Z,52.15
2022-11-22T04:23:20.360Z,43.00
2022-11-22T04:26:22.765Z,46.05
2022-11-22T04:29:25.503Z,64.10
2022-11-22T04:32:45.855Z,68.00
2022-11-22T04:35:48.817Z,45.72
2022-11-22T04:38:52.274Z,99.13
2022-11-22T04:42:15.051Z,87.15
2022-11-22T04:45:17.493Z,67.82
2022-11-22T04:48:19.977Z,62.37
2022-11-22T04:51:40.684Z,66.82
2022-11-22T04:54:43.088Z,43.15
2022-11-22T04:57:45.464Z,46.15
2022-11-22T05:00:48.375Z,61.33
2022-11-22T05:03:50.884Z,64.33
2022-11-22T05:06:53.368Z,54.65
2022-11-22T05:09:55.811Z,59.65
2022-11-22T05:12:58.263Z,75.00
2022-11-22T05:16:02.312Z,58.85
2022-11-22T05:19:04.729Z,50.07
2022-11-22T05:22:08.359Z,50.05
2022-11-22T05:25:10.948Z,63.65
2022-11-22T05:28:13.358Z,50.42
2022-11-22T05:31:18.430Z,43.53
2022-11-22T05:34:20.894Z,58.63
2022-11-22T05:37:23.702Z,62.72
2022-11-22T05:40:26.792Z,44.58
2022-11-22T05:43:29.384Z,57.28
2022-11-22T05:46:31.765Z,71.95
2022-11-22T05:49:34.331Z,68.97
2022-11-22T05:52:37.123Z,77.60
2022-11-22T05:55:39.562Z,84.35
2022-11-22T05:58:42.749Z,57.08
2022-11-22T06:01:45.258Z,114.90
2022-11-22T06:04:47.812Z,74.87
2022-11-22T06:07:50.277Z,64.07
2022-11-22T06:10:52.796Z,82.13
2022-11-22T06:13:57.660Z,72.70
2022-11-22T06:17:00.146Z,59.35
2022-11-22T06:20:06.152Z,63.23
2022-11-22T06:23:09.130Z,49.40
2022-11-22T06:26:13.844Z,63.90
2022-11-22T06:29:16.325Z,67.57
2022-11-22T06:32:18.857Z,46.78
2022-11-22T06:35:21.449Z,44.33
2022-11-22T06:38:23.975Z,55.85
2022-11-22T06:41:28.651Z,48.10
2022-11-22T06:44:31.093Z,47.03
2022-11-22T06:47:33.809Z,41.78
2022-11-22T06:50:36.260Z,48.07
2022-11-22T06:53:47.264Z,57.60
2022-11-22T06:56:50.820Z,62.00
2022-11-22T06:59:53.349Z,70.80
2022-11-22T07:02:55.711Z,65.13
2022-11-22T07:05:58.355Z,57.53
2022-11-22T07:09:03.715Z,50.13
2022-11-22T07:12:06.733Z,45.45
2022-11-22T07:15:09.810Z,46.50
2022-11-22T07:18:12.220Z,51.55
2022-11-22T07:21:23.336Z,39.57
2022-11-22T07:24:25.867Z,65.57
2022-11-22T07:27:28.470Z,52.20
2022-11-22T07:30:30.991Z,55.58
2022-11-22T07:33:33.611Z,64.93
2022-11-22T07:36:36.022Z,58.00
2022-11-22T07:39:39.863Z,57.08
2022-11-22T07:42:43.056Z,62.03
2022-11-22T07:45:48.681Z,53.67
2022-11-22T07:48:51.840Z,41.22
2022-11-22T07:51:54.381Z,40.37
2022-11-22T07:54:58.143Z,54.83
2022-11-22T07:58:02.755Z,60.95
2022-11-22T08:01:12.992Z,44.47
2022-11-22T08:04:18.174Z,38.38
2022-11-22T08:07:23.232Z,47.07
2022-11-22T08:10:26.742Z,38.17
2022-11-22T08:13:29.945Z,51.25
2022-11-22T08:16:33.261Z,45.38
2022-11-22T08:19:37.956Z,51.08
2022-11-22T08:22:41.976Z,38.83
2022-11-22T08:25:49.429Z,61.28
2022-11-22T08:28:52.344Z,83.47
2022-11-22T08:31:55.721Z,45.08
2022-11-22T08:34:58.192Z,52.60
2022-11-22T08:38:00.762Z,47.60
2022-11-22T08:41:04.315Z,71.32
2022-11-22T08:44:06.763Z,44.63
2022-11-22T08:47:09.205Z,44.60
2022-11-22T08:50:11.965Z,44.70
2022-11-22T08:53:15.037Z,44.73
2022-11-22T08:56:17.728Z,50.70
2022-11-22T08:59:20.984Z,43.03
2022-11-22T09:02:23.833Z,43.00
2022-11-22T09:05:26.607Z,40.33
2022-11-22T09:08:32.718Z,44.67
2022-11-22T09:11:38.593Z,41.95
2022-11-22T09:14:41.063Z,43.40
2022-11-22T09:17:44.376Z,47.47
2022-11-22T09:20:46.954Z,42.38
2022-11-22T09:23:50.672Z,41.20
2022-11-22T09:26:53.240Z,36.13
2022-11-22T09:29:56.063Z,35.38
2022-11-22T09:32:58.848Z,40.28
2022-11-22T09:36:04.304Z,42.33
2022-11-22T09:39:07.387Z,43.83
2022-11-22T09:42:13.134Z,52.25
2022-11-22T09:45:21.920Z,43.47
2022-11-22T09:49:10.231Z,43.08
2022-11-22T09:52:31.219Z,44.33
2022-11-22T09:55:42.007Z,49.30
2022-11-22T09:58:56.048Z,45.92
2022-11-22T10:02:26.780Z,39.72
2022-11-22T10:05:54.198Z,34.97
2022-11-22T10:09:22.991Z,35.90
2022-11-22T10:12:46.835Z,32.43
2022-11-22T10:15:59.560Z,30.65
2022-11-22T10:19:34.971Z,31.00
2022-11-22T10:22:39.394Z,36.30
2022-11-22T10:25:51.712Z,27.75
2022-11-22T10:29:18.103Z,28.10
2022-11-22T10:32:40.048Z,30.25
2022-11-22T10:35:56.676Z,33.70
2022-11-22T10:39:19.613Z,30.45
2022-11-22T10:42:52.541Z,31.63
2022-11-22T10:46:15.036Z,33.77
2022-11-22T10:49:41.465Z,31.23
2022-11-22T10:52:51.333Z,36.17
2022-11-22T10:55:58.547Z,32.67
2022-11-22T10:59:05.610Z,24.77
2022-11-22T11:02:41.290Z,18.27
2022-11-22T11:06:29.453Z,30.67
2022-11-22T11:10:12.153Z,36.85
2022-11-22T11:13:29.666Z,23.27
2022-11-22T11:16:37.507Z,34.22
2022-11-22T11:19:42.910Z,25.70
2022-11-22T11:23:17.079Z,33.40
2022-11-22T11:26:33.753Z,29.17
2022-11-22T11:29:42.600Z,30.00
2022-11-22T11:32:55.866Z,30.85
2022-11-22T11:36:22.665Z,27.50
2022-11-22T11:39:40.583Z,22.30
2022-11-22T11:42:47.717Z,28.42
2022-11-22T11:45:53.945Z,29.67
2022-11-22T11:49:11.592Z,35.63
2022-11-22T11:52:24.038Z,32.37
2022-11-22T11:55:32.354Z,25.13
2022-11-22T11:58:36.682Z,25.20
2022-11-22T12:01:56.608Z,28.67
2022-11-22T12:05:13.988Z,31.42
2022-11-22T12:08:32.001Z,25.17
2022-11-22T12:11:44.047Z,25.08
2022-11-22T12:15:11.151Z,29.77
2022-11-22T12:18:37.555Z,30.08
2022-11-22T12:21:46.084Z,30.88
2022-11-22T12:25:30.517Z,23.57
2022-11-22T12:28:22.950Z,26.77
2022-11-22T12:31:35.674Z,26.08
2022-11-22T12:35:02.439Z,31.23
2022-11-22T12:38:12.633Z,25.80
2022-11-22T12:41:17.224Z,24.33
2022-11-22T12:44:20.875Z,29.70
2022-11-22T12:47:27.039Z,25.25
2022-11-22T12:50:36.996Z,29.65
2022-11-22T12:53:42.494Z,29.25
2022-11-22T12:56:56.742Z,24.50
2022-11-22T13:00:04.409Z,31.45
2022-11-22T13:03:16.491Z,27.30
2022-11-22T13:06:23.192Z,18.15
2022-11-22T13:09:32.819Z,26.60
2022-11-22T13:12:38.686Z,20.23
2022-11-22T13:15:41.208Z,22.98
2022-11-22T13:18:57.024Z,20.67
2022-11-22T13:22:10.510Z,25.77
2022-11-22T13:25:32.046Z,33.50
2022-11-22T13:28:36.886Z,28.10
2022-11-22T13:32:04.507Z,23.73
2022-11-22T13:35:12.803Z,25.60
2022-11-22T13:38:17.488Z,33.05
2022-11-22T13:41:37.044Z,24.02
2022-11-22T13:44:52.477Z,26.60
2022-11-22T13:47:55.028Z,27.85
2022-11-22T13:50:59.528Z,29.45
2022-11-22T13:54:33.405Z,26.38
2022-11-22T13:57:40.226Z,33.17
2022-11-22T14:00:42.905Z,30.10
2022-11-22T14:03:45.394Z,27.73
2022-11-22T14:07:24.858Z,25.63
2022-11-22T14:10:34.562Z,28.70
2022-11-22T14:13:52.211Z,29.23
2022-11-22T14:17:06.616Z,26.57
2022-11-22T14:21:06.643Z,30.33
2022-11-22T14:24:08.997Z,27.55
2022-11-22T14:27:20.611Z,29.42
2022-11-22T14:30:38.207Z,22.90
2022-11-22T14:34:19.128Z,29.80
2022-11-22T14:37:34.892Z,26.10
2022-11-22T14:40:38.098Z,29.45
2022-11-22T14:43:41.398Z,22.08
2022-11-22T14:46:54.761Z,22.30
2022-11-22T14:49:57.442Z,25.83
2022-11-22T14:53:07.988Z,24.00
2022-11-22T14:56:18.916Z,28.08
2022-11-22T14:59:51.219Z,25.45
2022-11-22T15:02:59.719Z,27.17
2022-11-22T15:09:16.793Z,23.53
2022-11-22T15:09:53.529Z,26.45
2022-11-22T15:13:15.306Z,23.30
2022-11-22T15:58:01.231Z,24.20
2022-11-22T16:01:18.728Z,22.92
2022-11-22T16:04:27.802Z,25.25
2022-11-22T16:07:36.451Z,21.45
2022-11-22T16:10:42.788Z,19.95
2022-11-22T16:13:45.319Z,21.17
2022-11-22T16:16:47.911Z,21.92
2022-11-22T16:19:50.677Z,22.98
2022-11-22T16:23:26.031Z,24.50
2022-11-22T16:26:31.652Z,23.27
2022-11-22T16:29:35.923Z,21.83
2022-11-22T16:32:38.728Z,21.33
2022-11-22T16:35:41.132Z,19.40
2022-11-22T16:38:44.319Z,20.33
2022-11-22T16:41:47.543Z,21.80
2022-11-22T16:44:51.008Z,20.97
2022-11-22T16:48:16.725Z,18.60
2022-11-22T16:51:28.950Z,25.75
2022-11-22T16:54:32.638Z,20.70
2022-11-22T16:57:35.213Z,20.20
2022-11-22T17:00:37.980Z,18.63
2022-11-22T17:03:41.834Z,18.67
2022-11-22T17:06:44.832Z,25.95
2022-11-22T17:09:47.343Z,19.58
2022-11-22T17:12:49.903Z,24.25
2022-11-22T17:15:54.300Z,23.73
2022-11-22T17:18:58.640Z,24.58
2022-11-22T17:22:01.117Z,21.17
2022-11-22T17:25:04.203Z,24.10
2022-11-22T17:28:06.937Z,21.05
2022-11-22T17:31:12.904Z,22.80
2022-11-22T17:34:15.654Z,23.08
2022-11-22T17:37:18.387Z,17.55
2022-11-22T17:40:20.997Z,22.83
2022-11-22T17:43:23.628Z,24.27
2022-11-22T17:46:26.967Z,24.97
2022-11-22T17:49:30.335Z,24.02
2022-11-22T17:52:33.275Z,19.10
2022-11-22T17:56:02.811Z,19.33
2022-11-22T17:59:00.591Z,20.55
2022-11-22T18:02:03.485Z,18.30
2022-11-22T18:05:09.670Z,20.90
2022-11-22T18:08:12.343Z,17.60
2022-11-22T18:11:15.910Z,15.60
2022-11-22T18:14:18.528Z,15.10
2022-11-22T18:17:21.344Z,17.07
2022-11-22T18:20:23.934Z,23.65
2022-11-22T18:23:31.748Z,17.75
2022-11-22T18:26:40.041Z,13.18
2022-11-22T18:29:43.505Z,18.10
2022-11-22T18:32:46.280Z,18.27
2022-11-22T18:35:58.707Z,19.55
2022-11-22T18:39:01.368Z,12.95
2022-11-22T18:42:17.032Z,19.60
2022-11-22T18:45:19.900Z,16.88
2022-11-22T18:48:22.581Z,17.03
2022-11-22T18:51:25.332Z,16.30
2022-11-22T18:54:28.055Z,15.00
2022-11-22T18:57:30.859Z,13.60
2022-11-22T19:00:33.565Z,14.05
2022-11-22T19:03:37.420Z,11.50
2022-11-22T19:06:40.818Z,16.90
2022-11-22T19:09:43.679Z,16.00
2022-11-22T19:12:46.137Z,18.95
2022-11-22T19:15:49.110Z,16.90
2022-11-22T19:18:52.293Z,20.10
2022-11-22T19:21:55.217Z,14.50
2022-11-22T19:25:10.270Z,16.30
2022-11-22T19:28:12.990Z,14.48
2022-11-22T19:31:17.895Z,22.98
2022-11-22T19:34:20.621Z,15.27
2022-11-22T19:37:25.644Z,15.38
2022-11-22T19:40:28.373Z,11.20
2022-11-22T19:43:31.242Z,14.23
2022-11-22T19:46:34.306Z,14.40
2022-11-22T19:49:37.264Z,14.63
2022-11-22T19:52:39.885Z,15.43
2022-11-22T19:55:45.557Z,12.40
2022-11-22T19:58:55.300Z,10.43
2022-11-22T20:01:58.504Z,14.32
2022-11-22T20:05:01.196Z,13.57
2022-11-22T20:08:03.994Z,10.65
2022-11-22T20:11:09.130Z,12.55
2022-11-22T20:14:11.807Z,14.00
2022-11-22T20:17:14.489Z,15.52
2022-11-22T20:20:17.400Z,8.00
2022-11-22T20:23:20.272Z,7.70
2022-11-22T20:26:24.036Z,10.50
2022-11-22T20:29:26.730Z,11.52
2022-11-22T20:32:29.583Z,7.43
2022-11-22T20:35:32.263Z,8.57
2022-11-22T20:38:36.336Z,7.82
2022-11-22T20:41:39.658Z,8.30
2022-11-22T20:44:42.234Z,11.00
2022-11-22T20:47:45.020Z,8.70
2022-11-22T20:50:52.134Z,11.40
2022-11-22T20:53:55.313Z,11.15
2022-11-22T20:56:57.959Z,8.35
2022-11-22T21:00:00.656Z,8.77
2022-11-22T21:03:03.280Z,9.80
2022-11-22T21:06:05.918Z,9.67
2022-11-22T21:09:08.561Z,10.63
2022-11-22T21:12:11.103Z,8.43
2022-11-22T21:15:18.271Z,10.25
2022-11-22T21:18:25.955Z,9.98
2022-11-22T21:21:30.461Z,9.17
2022-11-22T21:24:33.062Z,10.23
2022-11-22T21:27:35.593Z,10.48
2022-11-22T21:30:38.021Z,10.60
2022-11-22T21:33:42.653Z,6.82
2022-11-22T21:36:45.338Z,7.57
2022-11-22T21:39:48.870Z,7.90
2022-11-22T21:42:51.279Z,9.63
2022-11-22T21:45:54.074Z,9.75
2022-11-22T21:48:56.819Z,9.18
2022-11-22T21:51:59.513Z,10.57
2022-11-22T21:55:02.085Z,8.57
2022-11-22T21:58:04.630Z,11.50
2022-11-22T22:01:13.570Z,7.53
2022-11-22T22:04:16.716Z,10.20
2022-11-22T22:07:44.765Z,7.50
2022-11-22T22:10:41.450Z,7.97
2022-11-22T22:13:43.844Z,7.53
2022-11-22T22:16:46.295Z,8.95
2022-11-22T22:19:49.552Z,10.90
2022-11-22T22:22:52.020Z,6.93
2022-11-22T22:25:59.370Z,7.82
2022-11-22T22:29:01.939Z,4.78
2022-11-22T22:32:10.219Z,7.25
2022-11-22T22:35:13.030Z,6.43
2022-11-22T22:38:15.496Z,8.97
2022-11-22T22:41:19.934Z,8.75
2022-11-22T22:44:22.336Z,6.90
2022-11-22T22:47:24.697Z,5.93
2022-11-22T22:50:27.075Z,6.63
2022-11-22T22:53:30.400Z,5.27
2022-11-22T22:56:33.965Z,5.78
2022-11-22T22:59:36.573Z,4.50
2022-11-22T23:02:39.077Z,6.68
2022-11-22T23:05:41.927Z,6.90
2022-11-22T23:08:46.727Z,6.47
2022-11-22T23:12:21.526Z,5.07
2022-11-22T23:15:43.917Z,4.85
2022-11-22T23:18:46.604Z,5.90
2022-11-22T23:21:49.628Z,5.15
2022-11-22T23:24:52.025Z,6.60
2022-11-22T23:27:54.532Z,5.13
2022-11-22T23:30:57.917Z,8.00
2022-11-22T23:34:01.544Z,5.30
2022-11-22T23:37:03.939Z,4.90
2022-11-22T23:40:07.021Z,4.27
2022-11-22T23:43:09.468Z,3.78
2022-11-22T23:46:16.190Z,5.05
2022-11-22T23:49:18.783Z,7.20
2022-11-22T23:52:21.355Z,5.50
2022-11-22T23:55:23.774Z,5.10
2022-11-22T23:58:30.133Z,4.65
